createdAt,value
2023-04-13T00:00:39.376Z,7.23
2023-04-13T00:03:08.588Z,7.17
2023-04-13T00:05:35.229Z,7.25
2023-04-13T00:08:03.271Z,7.22
2023-04-13T00:10:40.531Z,7.32
2023-04-13T00:13:08.727Z,7.35
2023-04-13T00:15:36.860Z,7.18
2023-04-13T00:18:04.110Z,7.16
2023-04-13T00:20:30.525Z,7.04
2023-04-13T00:22:59.196Z,7.02
2023-04-13T00:25:29.165Z,7.04
2023-04-13T00:27:55.798Z,7.20
2023-04-13T00:30:22.415Z,7.16
2023-04-13T00:32:49.365Z,7.07
2023-04-13T00:35:18.998Z,6.90
2023-04-13T00:37:49.858Z,6.99
2023-04-13T00:40:16.922Z,6.91
2023-04-13T00:42:47.837Z,6.84
2023-04-13T00:45:15.023Z,6.91
2023-04-13T00:47:46.517Z,6.89
2023-04-13T00:50:14.515Z,6.79
2023-04-13T00:52:41.022Z,6.74
2023-04-13T00:55:08.011Z,6.75
2023-04-13T00:57:35.406Z,6.75
2023-04-13T01:00:08.395Z,6.77
2023-04-13T01:02:35.186Z,6.85
2023-04-13T01:05:02.330Z,6.78
2023-04-13T01:07:37.254Z,6.65
2023-04-13T01:10:18.622Z,6.70
2023-04-13T01:13:10.169Z,6.65
2023-04-13T01:15:40.436Z,6.56
2023-04-13T01:18:09.948Z,6.51
2023-04-13T01:20:38.287Z,6.47
2023-04-13T01:23:09.521Z,6.41
2023-04-13T01:25:57.510Z,6.38
2023-04-13T01:28:27.903Z,6.30
2023-04-13T01:30:55.447Z,6.37
2023-04-13T01:33:22.870Z,6.45
2023-04-13T01:35:50.227Z,6.57
2023-04-13T01:38:24.509Z,6.70
2023-04-13T01:40:51.839Z,6.74
2023-04-13T01:43:20.353Z,6.69
2023-04-13T01:45:53.579Z,6.72
2023-04-13T01:48:38.740Z,6.84
2023-04-13T01:51:18.289Z,6.91
2023-04-13T01:53:46.989Z,6.88
2023-04-13T01:56:16.820Z,6.83
2023-04-13T01:58:43.824Z,6.83
2023-04-13T02:01:10.239Z,6.86
2023-04-13T02:03:38.511Z,6.79
2023-04-13T02:06:05.519Z,6.86
2023-04-13T02:08:34.887Z,6.81
2023-04-13T02:11:04.295Z,6.92
2023-04-13T02:13:30.842Z,6.98
2023-04-13T02:15:58.733Z,7.14
2023-04-13T02:18:25.610Z,7.25
2023-04-13T02:21:12.075Z,7.29
2023-04-13T02:23:40.635Z,7.31
2023-04-13T02:26:08.585Z,7.35
2023-04-13T02:28:35.691Z,7.39
2023-04-13T02:31:05.722Z,7.38
2023-04-13T02:33:33.049Z,7.37
2023-04-13T02:36:03.974Z,7.22
2023-04-13T02:38:31.999Z,7.29
2023-04-13T02:41:00.176Z,7.28
2023-04-13T02:43:27.068Z,7.36
2023-04-13T02:45:53.509Z,7.32
2023-04-13T02:48:20.225Z,7.34
2023-04-13T02:50:49.436Z,7.35
2023-04-13T02:53:16.835Z,7.38
2023-04-13T02:55:43.356Z,7.43
2023-04-13T02:58:10.879Z,7.33
2023-04-13T03:00:38.481Z,7.46
2023-04-13T03:03:06.840Z,7.51
2023-04-13T03:05:33.846Z,7.50
2023-04-13T03:08:05.372Z,7.52
2023-04-13T03:10:31.911Z,7.55
2023-04-13T03:12:58.744Z,7.62
2023-04-13T03:15:25.243Z,7.48
2023-04-13T03:17:51.811Z,7.47
2023-04-13T03:20:21.185Z,7.49
2023-04-13T03:22:49.765Z,7.55
2023-04-13T03:25:16.657Z,7.49
2023-04-13T03:27:43.164Z,7.59
2023-04-13T03:30:10.086Z,7.55
2023-04-13T03:32:37.679Z,7.55
2023-04-13T03:35:05.364Z,7.64
2023-04-13T03:37:39.996Z,7.61
2023-04-13T03:40:10.128Z,7.67
2023-04-13T03:42:37.497Z,7.76
2023-04-13T03:45:05.009Z,7.79
2023-04-13T03:47:38.817Z,7.75
2023-04-13T03:50:05.843Z,7.73
2023-04-13T03:52:34.703Z,7.67
2023-04-13T03:55:02.047Z,7.60
2023-04-13T03:57:29.721Z,7.60
2023-04-13T03:59:58.742Z,7.64
2023-04-13T04:02:25.339Z,7.66
2023-04-13T04:04:56.681Z,7.62
2023-04-13T04:07:25.703Z,7.61
2023-04-13T04:09:52.173Z,7.59
2023-04-13T04:12:18.708Z,7.64
2023-04-13T04:14:47.359Z,7.61
2023-04-13T04:17:17.022Z,7.61
2023-04-13T04:19:43.384Z,7.64
2023-04-13T04:22:09.728Z,7.56
2023-04-13T04:24:36.226Z,7.60
2023-04-13T04:27:05.704Z,7.58
2023-04-13T04:29:34.608Z,7.60
2023-04-13T04:32:04.373Z,7.65
2023-04-13T04:34:31.712Z,7.60
2023-04-13T04:37:03.270Z,7.56
2023-04-13T04:39:33.009Z,7.59
2023-04-13T04:42:07.489Z,7.60
2023-04-13T04:44:33.967Z,7.66
2023-04-13T04:47:00.298Z,7.57
2023-04-13T04:49:28.023Z,7.62
2023-04-13T04:51:58.126Z,7.55
2023-04-13T04:54:24.864Z,7.56
2023-04-13T04:56:51.674Z,7.61
2023-04-13T04:59:19.839Z,7.59
2023-04-13T05:01:46.825Z,7.58
2023-04-13T05:04:16.179Z,7.58
2023-04-13T05:06:42.803Z,7.65
2023-04-13T05:09:11.661Z,7.61
2023-04-13T05:11:41.141Z,7.66
2023-04-13T05:14:07.576Z,7.75
2023-04-13T05:16:34.448Z,7.75
2023-04-13T05:19:01.750Z,7.73
2023-04-13T05:21:28.579Z,7.76
2023-04-13T05:23:54.949Z,7.71
2023-04-13T05:26:21.832Z,7.81
2023-04-13T05:28:48.219Z,7.83
2023-04-13T05:31:16.784Z,7.83
2023-04-13T05:33:46.455Z,7.80
2023-04-13T05:36:15.122Z,7.90
2023-04-13T05:38:44.111Z,7.92
2023-04-13T05:41:13.041Z,7.89
2023-04-13T05:43:39.854Z,7.87
2023-04-13T05:46:07.634Z,7.90
2023-04-13T05:48:34.853Z,8.07
2023-04-13T05:51:01.340Z,8.07
2023-04-13T05:53:32.408Z,8.01
2023-04-13T05:56:01.265Z,8.09
2023-04-13T05:58:27.685Z,8.12
2023-04-13T06:00:54.183Z,8.22
2023-04-13T06:03:20.756Z,8.29
2023-04-13T06:05:48.772Z,8.30
2023-04-13T06:08:15.272Z,8.19
2023-04-13T06:10:41.896Z,8.19
2023-04-13T06:13:08.393Z,8.23
2023-04-13T06:15:38.901Z,8.28
2023-04-13T06:18:05.415Z,8.47
2023-04-13T06:20:33.428Z,8.50
2023-04-13T06:23:00.110Z,8.47
2023-04-13T06:25:28.836Z,8.56
2023-04-13T06:27:55.266Z,8.55
2023-04-13T06:30:22.035Z,8.51
2023-04-13T06:32:50.905Z,8.46
2023-04-13T06:35:17.461Z,8.55
2023-04-13T06:37:43.990Z,8.60
2023-04-13T06:40:15.661Z,8.72
2023-04-13T06:42:42.834Z,8.56
2023-04-13T06:45:10.831Z,8.68
2023-04-13T06:47:41.648Z,8.55
2023-04-13T06:50:10.479Z,8.48
2023-04-13T06:52:41.701Z,8.22
2023-04-13T06:55:10.418Z,8.07
2023-04-13T06:57:36.893Z,7.96
2023-04-13T07:00:10.444Z,7.94
2023-04-13T07:02:48.687Z,7.72
2023-04-13T07:05:15.574Z,7.65
2023-04-13T07:07:44.552Z,7.63
2023-04-13T07:10:11.530Z,7.67
2023-04-13T07:12:37.906Z,7.73
2023-04-13T07:15:04.703Z,7.66
2023-04-13T07:17:39.651Z,7.61
2023-04-13T07:20:09.415Z,7.49
2023-04-13T07:22:40.642Z,7.48
2023-04-13T07:25:09.356Z,7.64
2023-04-13T07:27:36.048Z,7.47
2023-04-13T07:30:02.675Z,7.83
2023-04-13T07:32:32.052Z,7.88
2023-04-13T07:35:01.362Z,7.70
2023-04-13T07:37:27.906Z,7.40
2023-04-13T07:39:54.554Z,7.64
2023-04-13T07:42:21.309Z,7.56
2023-04-13T07:44:47.741Z,7.60
2023-04-13T07:47:16.788Z,7.61
2023-04-13T07:49:45.815Z,7.84
2023-04-13T07:52:12.952Z,8.13
2023-04-13T07:54:43.972Z,8.13
2023-04-13T07:57:10.403Z,8.13
2023-04-13T07:59:36.910Z,8.12
2023-04-13T08:02:04.314Z,7.86
2023-04-13T08:04:31.875Z,8.08
2023-04-13T08:07:02.952Z,8.05
2023-04-13T08:09:36.111Z,8.11
2023-04-13T08:12:06.241Z,8.28
2023-04-13T08:14:33.199Z,8.33
2023-04-13T08:17:00.842Z,8.22
2023-04-13T08:19:28.506Z,8.58
2023-04-13T08:21:54.879Z,8.71
2023-04-13T08:24:21.348Z,9.09
2023-04-13T08:26:52.205Z,9.05
2023-04-13T08:29:19.031Z,9.50
2023-04-13T08:31:47.889Z,9.61
2023-04-13T08:34:16.972Z,10.12
2023-04-13T08:36:45.900Z,10.40
2023-04-13T08:39:13.497Z,10.66
2023-04-13T08:41:43.995Z,10.37
2023-04-13T08:44:12.103Z,10.55
2023-04-13T08:46:44.980Z,10.24
2023-04-13T08:49:11.724Z,10.04
2023-04-13T08:51:38.854Z,9.92
2023-04-13T08:54:07.081Z,9.60
2023-04-13T08:56:45.534Z,9.81
2023-04-13T08:59:15.404Z,10.11
2023-04-13T09:01:45.485Z,10.23
2023-04-13T09:04:17.799Z,9.79
2023-04-13T09:06:47.862Z,9.89
2023-04-13T09:09:14.936Z,9.85
2023-04-13T09:11:43.207Z,10.10
2023-04-13T09:14:10.250Z,10.55
2023-04-13T09:16:43.486Z,11.03
2023-04-13T09:19:13.867Z,11.16
2023-04-13T09:21:42.469Z,11.03
2023-04-13T09:24:12.533Z,10.79
2023-04-13T09:26:40.123Z,10.92
2023-04-13T09:29:10.364Z,10.99
2023-04-13T09:31:40.639Z,10.93
2023-04-13T09:34:08.251Z,11.10
2023-04-13T09:36:35.621Z,11.04
2023-04-13T09:39:05.239Z,10.87
2023-04-13T09:41:36.494Z,10.68
2023-04-13T09:44:17.914Z,10.45
2023-04-13T09:47:01.787Z,10.65
2023-04-13T09:49:46.662Z,10.95
2023-04-13T09:52:23.689Z,11.27
2023-04-13T09:54:59.188Z,10.68
2023-04-13T09:57:30.691Z,10.48
2023-04-13T10:00:01.386Z,10.73
2023-04-13T10:02:28.581Z,10.85
2023-04-13T10:04:58.263Z,10.92
2023-04-13T10:07:28.773Z,10.94
2023-04-13T10:09:55.716Z,10.53
2023-04-13T10:12:25.949Z,10.81
2023-04-13T10:15:03.131Z,10.69
2023-04-13T10:17:58.885Z,10.83
2023-04-13T10:20:28.677Z,11.15
2023-04-13T10:22:55.468Z,11.14
2023-04-13T10:25:31.472Z,11.27
2023-04-13T10:28:02.733Z,10.92
2023-04-13T10:30:29.528Z,11.13
2023-04-13T10:33:11.407Z,11.43
2023-04-13T10:35:40.047Z,11.51
2023-04-13T10:38:10.556Z,11.31
2023-04-13T10:40:45.487Z,11.53
2023-04-13T10:43:12.581Z,11.54
2023-04-13T10:45:38.945Z,11.32
2023-04-13T10:48:06.447Z,11.16
2023-04-13T10:50:33.008Z,11.27
2023-04-13T10:53:07.783Z,11.17
2023-04-13T10:55:35.390Z,11.31
2023-04-13T10:58:15.015Z,11.74
2023-04-13T11:00:46.684Z,12.16
2023-04-13T11:03:17.758Z,12.06
2023-04-13T11:05:47.073Z,12.30
2023-04-13T11:08:19.239Z,12.33
2023-04-13T11:10:50.243Z,12.23
2023-04-13T11:13:16.934Z,12.20
2023-04-13T11:15:43.394Z,12.16
2023-04-13T11:18:10.110Z,12.22
2023-04-13T11:20:38.867Z,12.45
2023-04-13T11:23:18.618Z,12.38
2023-04-13T11:26:00.051Z,12.00
2023-04-13T11:28:40.458Z,12.13
2023-04-13T11:31:11.434Z,12.16
2023-04-13T11:33:41.156Z,12.52
2023-04-13T11:36:08.152Z,12.88
2023-04-13T11:38:34.660Z,13.20
2023-04-13T11:43:39.111Z,12.83
2023-04-13T11:46:05.991Z,12.40
2023-04-13T11:48:32.661Z,12.58
2023-04-13T11:50:59.764Z,12.33
2023-04-13T11:53:29.009Z,12.21
2023-04-13T11:55:55.717Z,12.11
2023-04-13T11:58:22.155Z,11.73
2023-04-13T12:00:48.671Z,11.78
2023-04-13T12:06:00.710Z,12.09
2023-04-13T12:08:33.804Z,12.49
2023-04-13T12:14:06.506Z,12.72
2023-04-13T12:17:03.120Z,12.50
2023-04-13T12:19:27.237Z,12.47
2023-04-13T12:21:58.173Z,12.32
2023-04-13T12:24:39.328Z,12.08
2023-04-13T12:29:41.121Z,11.98
2023-04-13T12:32:14.629Z,12.60
2023-04-13T12:34:42.318Z,13.15
2023-04-13T12:37:10.099Z,14.36
2023-04-13T12:39:36.501Z,14.94
2023-04-13T12:42:03.067Z,14.78
2023-04-13T12:44:34.115Z,14.09
2023-04-13T12:47:01.154Z,13.89
2023-04-13T12:49:27.669Z,13.95
2023-04-13T12:51:56.617Z,13.99
2023-04-13T12:54:23.100Z,14.33
2023-04-13T12:56:49.459Z,14.79
2023-04-13T12:59:16.708Z,14.80
2023-04-13T13:01:43.206Z,14.09
2023-04-13T13:04:09.707Z,14.46
2023-04-13T13:06:38.704Z,14.55
2023-04-13T13:09:05.783Z,14.72
2023-04-13T13:11:32.378Z,14.80
2023-04-13T13:14:01.165Z,14.96
2023-04-13T13:16:27.525Z,14.91
2023-04-13T13:18:54.075Z,14.62
2023-04-13T13:21:23.770Z,14.60
2023-04-13T13:23:50.528Z,14.15
2023-04-13T13:28:48.594Z,14.23
2023-04-13T13:31:17.839Z,13.94
2023-04-13T13:33:44.280Z,13.73
2023-04-13T13:36:11.206Z,13.53
2023-04-13T13:38:37.928Z,13.18
2023-04-13T13:41:04.466Z,12.77
2023-04-13T13:43:30.988Z,12.62
2023-04-13T13:45:57.839Z,11.80
2023-04-13T13:48:29.293Z,11.54
2023-04-13T13:51:01.174Z,11.30
2023-04-13T13:53:27.911Z,11.21
2023-04-13T13:55:55.433Z,10.79
2023-04-13T13:58:21.936Z,10.59
2023-04-13T14:00:49.249Z,10.28
2023-04-13T14:03:16.533Z,10.17
2023-04-13T14:05:43.429Z,9.80
2023-04-13T14:08:10.512Z,9.58
2023-04-13T14:10:36.989Z,9.29
2023-04-13T14:13:06.290Z,8.95
2023-04-13T14:15:35.193Z,8.70
2023-04-13T14:18:10.850Z,8.84
2023-04-13T14:20:39.472Z,8.80
2023-04-13T14:23:06.595Z,9.07
2023-04-13T14:25:33.066Z,9.05
2023-04-13T14:27:59.662Z,9.10
2023-04-13T14:30:27.890Z,9.05
2023-04-13T14:32:54.748Z,9.18
2023-04-13T14:35:21.460Z,8.81
2023-04-13T14:37:48.004Z,8.79
2023-04-13T14:40:16.936Z,8.78
2023-04-13T14:42:43.549Z,8.79
2023-04-13T14:45:13.406Z,8.75
2023-04-13T14:47:42.261Z,8.59
2023-04-13T14:50:09.885Z,8.66
2023-04-13T14:52:36.446Z,8.73
2023-04-13T14:55:04.146Z,8.82
2023-04-13T14:57:31.378Z,8.89
2023-04-13T14:59:57.842Z,9.00
2023-04-13T15:02:29.428Z,8.99
2023-04-13T15:04:56.285Z,9.21
2023-04-13T15:07:29.934Z,9.24
2023-04-13T15:09:56.932Z,9.12
2023-04-13T15:12:25.950Z,9.26
2023-04-13T15:14:52.399Z,9.28
2023-04-13T15:17:18.806Z,9.34
2023-04-13T15:19:45.258Z,9.55
2023-04-13T15:22:11.630Z,9.52
2023-04-13T15:24:38.224Z,9.58
2023-04-13T15:27:04.883Z,9.55
2023-04-13T15:29:31.281Z,9.64
2023-04-13T15:31:58.496Z,9.39
2023-04-13T15:34:25.065Z,9.43
2023-04-13T15:36:51.463Z,9.58
2023-04-13T15:39:17.954Z,9.73
2023-04-13T15:41:47.364Z,9.78
2023-04-13T15:44:13.704Z,9.86
2023-04-13T15:46:42.439Z,9.91
2023-04-13T15:49:08.896Z,9.85
2023-04-13T15:51:35.299Z,9.85
2023-04-13T15:54:01.691Z,9.91
2023-04-13T15:56:28.362Z,10.14
2023-04-13T15:58:54.796Z,10.17
2023-04-13T16:01:21.314Z,10.18
2023-04-13T16:03:47.969Z,10.13
2023-04-13T16:06:21.234Z,10.12
2023-04-13T16:08:49.132Z,10.17
2023-04-13T16:11:20.642Z,10.25
2023-04-13T16:13:49.861Z,10.20
2023-04-13T16:16:18.164Z,10.31
2023-04-13T16:18:44.725Z,10.30
2023-04-13T16:21:12.269Z,10.31
2023-04-13T16:23:38.669Z,10.33
2023-04-13T16:26:06.299Z,10.32
2023-04-13T16:28:36.753Z,10.09
2023-04-13T16:31:03.516Z,10.03
2023-04-13T16:33:34.785Z,9.93
2023-04-13T16:36:01.164Z,9.82
2023-04-13T16:38:27.625Z,9.81
2023-04-13T16:40:54.086Z,9.80
2023-04-13T16:43:20.622Z,9.74
2023-04-13T16:45:47.187Z,9.78
2023-04-13T16:48:13.585Z,9.72
2023-04-13T16:50:39.938Z,9.64
2023-04-13T16:53:06.644Z,9.72
2023-04-13T16:55:36.204Z,9.62
2023-04-13T16:58:02.611Z,9.58
2023-04-13T17:00:31.346Z,9.52
2023-04-13T17:03:02.760Z,9.52
2023-04-13T17:05:29.473Z,9.66
2023-04-13T17:07:56.049Z,9.49
2023-04-13T17:10:24.907Z,9.41
2023-04-13T17:12:51.419Z,9.36
2023-04-13T17:15:21.082Z,9.43
2023-04-13T17:17:49.838Z,9.51
2023-04-13T17:20:17.244Z,9.51
2023-04-13T17:22:44.160Z,9.59
2023-04-13T17:25:10.828Z,9.55
2023-04-13T17:27:37.156Z,9.30
2023-04-13T17:30:03.895Z,9.24
2023-04-13T17:32:30.590Z,9.17
2023-04-13T17:34:57.319Z,9.11
2023-04-13T17:37:24.281Z,9.11
2023-04-13T17:39:51.440Z,9.23
2023-04-13T17:42:18.492Z,9.10
2023-04-13T17:44:44.925Z,9.16
2023-04-13T17:47:11.267Z,9.11
2023-04-13T17:49:38.455Z,8.95
2023-04-13T17:52:05.351Z,8.96
2023-04-13T17:54:32.195Z,9.02
2023-04-13T17:56:58.539Z,8.98
2023-04-13T17:59:24.929Z,8.99
2023-04-13T18:01:54.520Z,9.05
2023-04-13T18:04:24.147Z,9.16
2023-04-13T18:06:50.798Z,9.21
2023-04-13T18:09:20.110Z,9.01
2023-04-13T18:11:51.264Z,9.05
2023-04-13T18:14:17.822Z,9.09
2023-04-13T18:16:46.881Z,9.15
2023-04-13T18:19:26.699Z,9.20
2023-04-13T18:22:05.748Z,9.11
2023-04-13T18:24:32.451Z,9.02
2023-04-13T18:26:58.984Z,9.09
2023-04-13T18:29:25.484Z,9.05
2023-04-13T18:31:54.728Z,8.88
2023-04-13T18:34:21.809Z,8.87
2023-04-13T18:36:53.187Z,8.94
2023-04-13T18:39:19.779Z,8.75
2023-04-13T18:41:48.814Z,8.86
2023-04-13T18:44:15.400Z,8.86
2023-04-13T18:49:27.080Z,8.62
2023-04-13T18:51:55.778Z,8.51
2023-04-13T18:54:24.549Z,8.61
2023-04-13T18:56:51.033Z,8.65
2023-04-13T18:59:17.516Z,8.71
2023-04-13T19:01:48.923Z,8.59
2023-04-13T19:04:15.555Z,8.42
2023-04-13T19:06:49.526Z,8.24
2023-04-13T19:09:16.064Z,8.11
2023-04-13T19:11:51.569Z,8.03
2023-04-13T19:14:18.046Z,7.93
2023-04-13T19:16:47.081Z,7.85
2023-04-13T19:19:15.116Z,7.86
2023-04-13T19:21:41.682Z,7.86
2023-04-13T19:24:08.466Z,7.86
2023-04-13T19:26:34.910Z,7.79
2023-04-13T19:29:03.768Z,7.73
2023-04-13T19:31:30.451Z,7.64
2023-04-13T19:33:57.572Z,7.59
2023-04-13T19:36:25.860Z,7.53
2023-04-13T19:38:57.496Z,7.45
2023-04-13T19:41:24.041Z,7.42
2023-04-13T19:43:53.822Z,7.35
2023-04-13T19:46:24.098Z,7.39
2023-04-13T19:48:51.119Z,7.30
2023-04-13T19:51:17.468Z,7.09
2023-04-13T19:53:44.064Z,7.03
2023-04-13T19:56:15.832Z,7.12
2023-04-13T19:58:42.325Z,7.05
2023-04-13T20:01:13.470Z,6.98
2023-04-13T20:03:40.835Z,6.86
2023-04-13T20:06:08.075Z,7.02
2023-04-13T20:08:35.216Z,7.14
2023-04-13T20:11:04.025Z,7.08
2023-04-13T20:13:30.419Z,6.90
2023-04-13T20:15:57.042Z,6.90
2023-04-13T20:18:25.022Z,6.81
2023-04-13T20:20:53.892Z,6.78
2023-04-13T20:23:20.441Z,6.56
2023-04-13T20:25:47.005Z,6.55
2023-04-13T20:28:13.685Z,6.38
2023-04-13T20:30:40.065Z,6.37
2023-04-13T20:33:07.393Z,6.31
2023-04-13T20:35:34.384Z,6.22
2023-04-13T20:38:00.827Z,6.25
2023-04-13T20:40:28.146Z,6.24
2023-04-13T20:42:58.499Z,6.23
2023-04-13T20:45:25.017Z,6.20
2023-04-13T20:47:55.979Z,6.20
2023-04-13T20:50:25.002Z,6.21
2023-04-13T20:52:56.781Z,6.25
2023-04-13T20:55:24.280Z,6.30
2023-04-13T20:57:53.101Z,6.30
2023-04-13T21:00:23.313Z,6.25
2023-04-13T21:02:49.911Z,6.23
2023-04-13T21:05:16.540Z,6.18
2023-04-13T21:07:43.331Z,6.16
2023-04-13T21:10:10.908Z,6.16
2023-04-13T21:12:37.278Z,6.17
2023-04-13T21:15:04.533Z,6.14
2023-04-13T21:17:31.410Z,6.13
2023-04-13T21:19:57.895Z,6.19
2023-04-13T21:22:24.483Z,6.20
2023-04-13T21:24:53.280Z,6.25
2023-04-13T21:27:22.474Z,6.29
2023-04-13T21:29:48.895Z,6.23
2023-04-13T21:32:15.643Z,6.22
2023-04-13T21:34:42.077Z,6.11
2023-04-13T21:37:08.476Z,6.06
2023-04-13T21:39:34.948Z,6.05
2023-04-13T21:42:04.555Z,5.91
2023-04-13T21:44:31.072Z,5.84
2023-04-13T21:47:01.070Z,5.74
2023-04-13T21:49:27.606Z,5.71
2023-04-13T21:51:54.203Z,5.72
2023-04-13T21:54:20.774Z,5.67
2023-04-13T21:56:48.966Z,5.63
2023-04-13T21:59:16.030Z,5.61
2023-04-13T22:01:42.651Z,5.61
2023-04-13T22:04:12.607Z,5.59
2023-04-13T22:06:43.686Z,5.56
2023-04-13T22:09:10.245Z,5.52
2023-04-13T22:11:39.854Z,5.41
2023-04-13T22:14:06.419Z,5.38
2023-04-13T22:16:37.787Z,5.27
2023-04-13T22:19:04.310Z,5.38
2023-04-13T22:21:31.372Z,5.42
2023-04-13T22:23:57.711Z,5.38
2023-04-13T22:26:44.339Z,5.28
2023-04-13T22:29:10.864Z,5.22
2023-04-13T22:31:37.499Z,5.17
2023-04-13T22:34:03.997Z,5.13
2023-04-13T22:36:32.854Z,5.07
2023-04-13T22:38:59.762Z,5.01
2023-04-13T22:41:26.417Z,5.04
2023-04-13T22:43:52.779Z,4.96
2023-04-13T22:46:19.220Z,4.94
2023-04-13T22:48:46.014Z,4.94
2023-04-13T22:51:15.597Z,4.89
2023-04-13T22:53:44.246Z,4.92
2023-04-13T22:56:10.764Z,4.86
2023-04-13T22:58:37.148Z,4.72
2023-04-13T23:01:04.493Z,4.71
2023-04-13T23:03:31.335Z,4.63
2023-04-13T23:05:57.822Z,4.65
2023-04-13T23:08:29.243Z,4.57
2023-04-13T23:10:56.095Z,4.49
2023-04-13T23:13:25.003Z,4.48
2023-04-13T23:15:58.971Z,4.38
2023-04-13T23:18:25.346Z,4.33
2023-04-13T23:20:54.033Z,4.33
2023-04-13T23:23:20.575Z,4.28
2023-04-13T23:25:50.771Z,4.22
2023-04-13T23:28:17.365Z,4.30
2023-04-13T23:30:44.468Z,4.43
2023-04-13T23:33:11.013Z,4.50
2023-04-13T23:35:37.361Z,4.34
2023-04-13T23:38:03.857Z,4.43
2023-04-13T23:40:30.569Z,4.52
2023-04-13T23:42:57.062Z,4.50
2023-04-13T23:45:24.859Z,4.54
2023-04-13T23:47:51.564Z,4.57
2023-04-13T23:50:18.111Z,4.58
2023-04-13T23:52:44.546Z,4.59
2023-04-13T23:55:11.112Z,4.64
2023-04-13T23:57:39.949Z,4.62
